Maple Grove, Canada
Current Conditions -  °F | °C
As of 4:00 PM on Wednesday 26 Nov 2014 (Local Time) from CYUL Reporting Station
Overcast Overcast  
Wind Chill: 24°   Ceiling: 12000
Heat Index: 32°   Visibility: 15mi
Dew Point: 21°   Wind: 10mph
Humidity: 64%   Direction: 20°NNE
Pressure: 30.17"   Gusts: NA
Location:  45.32°N, 73.85°W
Report Text: CYUL 262100Z 02009KT 15SM FEW060 OVC120 M00/M06 A3017 RMK CF1AC8 CF TR PRESFR SLP219
Loading
Personal Weather Stations






























Interactive Weather Map New forecast layout! Learn more

10-Day Weather Forecast

Advertisements
Track Severe Weather on mobile